Thursday, November 23, 2017, 7:22 PM EST
Back to Local

KMGJ, Montgomery Orange Co Airport

Location: Montgomery, NY, United States Lat: 41.517
Local Time: 7:22 PM EST ( 0:22 GMT) Lon: -74.267
Time Zone: US/Eastern Elev: 354 ft

Show me the last for .
Show Decoded

2017-11-23 18:54 METAR KMGJ 232354Z AUTO 25003KT 10SM CLR 00/M07 A2999 RMK AO2 SLP161 T00001067
                 10067 20000 51006 =
2017-11-23 17:54 METAR KMGJ 232254Z AUTO 29005KT 10SM CLR 02/M07 A2999 RMK AO2 SLP160 T00221072 =
2017-11-23 16:54 METAR KMGJ 232154Z AUTO 24003KT 10SM CLR 03/M07 A2998 RMK AO2 SLP157 T00281067 =
2017-11-23 15:54 METAR KMGJ 232054Z AUTO 21005KT 10SM CLR 04/M07 A2998 RMK AO2 SLP154 T00441067
                 55015 =
2017-11-23 14:54 METAR KMGJ 231954Z AUTO 23005KT 10SM CLR 06/M07 A2997 RMK AO2 SLP152 T00561072 =
2017-11-23 13:54 METAR KMGJ 231854Z AUTO 28007KT 240V320 10SM CLR 06/M08 A2999 RMK AO2 SLP159
                 T00611078 =
2017-11-23 12:54 METAR KMGJ 231754Z AUTO 31006KT 10SM CLR 06/M07 A3002 RMK AO2 SLP169 T00611072
                 10061 21033 58021 =
2017-11-23 11:54 METAR KMGJ 231654Z AUTO 30006KT 10SM CLR 04/M08 A3004 RMK AO2 SLP175 T00441078 =
2017-11-23 10:54 METAR KMGJ 231554Z AUTO 30005KT 10SM CLR 03/M08 A3007 RMK AO2 SLP187 T00331078 =
2017-11-23 09:54 METAR KMGJ 231454Z AUTO 31007KT 10SM CLR 02/M08 A3009 RMK AO2 SLP191 T00221078
                 50003 =
2017-11-23 08:54 METAR KMGJ 231354Z AUTO 31007KT 10SM CLR 01/M08 A3009 RMK AO2 SLP192 T00061078 =
2017-11-23 07:54 METAR KMGJ 231254Z AUTO 31006KT 10SM CLR M01/M07 A3009 RMK AO2 SLP193 T10111072
                 =
2017-11-23 06:54 METAR KMGJ 231154Z AUTO 33003KT 10SM CLR M03/M08 A3008 RMK AO2 SLP189 70003
                 T10331078 10000 21033 55003 =
2017-11-23 05:54 METAR KMGJ 231054Z AUTO 32004KT 10SM CLR M03/M08 A3007 RMK AO2 SLP186 T10281078
                 =
2017-11-23 04:54 METAR KMGJ 230954Z AUTO 33006KT 10SM CLR M02/M08 A3006 RMK AO2 SLP184 T10171078
                 =
2017-11-23 03:54 METAR KMGJ 230854Z AUTO 32003KT 10SM CLR M01/M08 A3009 RMK AO2 SLP192 T10111078
                 53003 =
2017-11-23 02:54 METAR KMGJ 230754Z AUTO VRB03KT 10SM CLR M01/M08 A3009 RMK AO2 SLP191 T10061078
                 =
2017-11-23 01:54 METAR KMGJ 230654Z AUTO 00000KT 10SM CLR M01/M08 A3007 RMK AO2 SLP184 T10111078
                 =
2017-11-23 00:54 METAR KMGJ 230554Z AUTO 29004KT 10SM CLR M01/M08 A3008 RMK AO2 SLP187 T10061078
                 10039 21006 53006 =
2017-11-22 23:54 METAR KMGJ 230454Z AUTO 29006KT 10SM CLR 00/M07 A3007 RMK AO2 SLP184 T00001072
                 401061017 =
2017-11-22 22:54 METAR KMGJ 230354Z AUTO 30012KT 10SM CLR 01/M07 A3007 RMK AO2 SLP184 T00111067 =
2017-11-22 21:54 METAR KMGJ 230254Z AUTO 31010G15KT 10SM BKN042 02/M06 A3006 RMK AO2 SLP181
                 T00171061 53009 =
2017-11-22 20:54 METAR KMGJ 230154Z AUTO 32011G17KT 10SM BKN041 03/M06 A3004 RMK AO2 SLP176
                 T00281056 =
2017-11-22 19:54 METAR KMGJ 230054Z AUTO 32010KT 10SM BKN040 03/M05 A3003 RMK AO2 SLP172
                 T00281050 =

Support USWX by starting your Amazon purchase here.